Time;durP1;ratioP1;P1;durP2;ratioP2;P2;SDS_P1;SDS_P2;PMS_P1;PMS_P2;Temp;Humidity;BMP_temperature;BMP_pressure;BME280_temperature;BME280_humidity;BME280_pressure;Samples;Min_cycle;Max_cycle;Signal;HPM_P1;HPM_P2
2022/08/18 00:01:14;;;;;;;17.00;4.80;;;;;18.80;97105.80;;;;110962;1250;41416;-64
2022/08/18 00:03:45;;;;;;;9.90;4.50;;;;;18.72;97103.80;;;;110775;1249;41236;-64
2022/08/18 00:06:23;;;;;;;11.90;4.30;;;;;18.70;97100.80;;;;110833;1248;42014;-63
2022/08/18 00:08:58;;;;;;;8.10;3.90;;;;;18.70;97104.40;;;;110811;1249;41319;-64
2022/08/18 00:11:31;;;;;;;8.70;3.60;;;;;18.70;97106.20;;;;110887;1250;41965;-64
2022/08/18 00:14:16;;;;;;;36.60;4.50;;;;;18.70;97107.00;;;;110743;1249;41649;-64
2022/08/18 00:16:53;;;;;;;9.20;3.40;;;;;18.70;97110.20;;;;110926;1249;41176;-64
2022/08/18 00:19:24;;;;;;;14.90;3.90;;;;;18.70;97102.40;;;;110881;1250;41253;-63
2022/08/18 00:22:16;;;;;;;23.60;3.80;;;;;18.70;97108.20;;;;110940;1249;42138;-64
2022/08/18 00:24:47;;;;;;;14.70;3.80;;;;;18.70;97104.80;;;;110790;1250;41188;-63
2022/08/18 00:27:20;;;;;;;8.90;3.50;;;;;18.70;97104.60;;;;110897;1249;42364;-64
2022/08/18 00:29:53;;;;;;;7.30;3.30;;;;;18.66;97101.40;;;;111058;1249;41503;-64
2022/08/18 00:32:25;;;;;;;7.00;3.10;;;;;18.60;97099.60;;;;110891;1249;41481;-64
2022/08/18 00:34:55;;;;;;;9.30;3.50;;;;;18.60;97103.40;;;;111013;1249;41186;-63
2022/08/18 00:37:25;;;;;;;9.50;3.70;;;;;18.60;97099.00;;;;110775;1249;41153;-62
2022/08/18 00:39:55;;;;;;;7.70;3.70;;;;;18.60;97100.40;;;;110701;1249;41253;-63
2022/08/18 00:42:28;;;;;;;49.70;5.10;;;;;18.60;97109.00;;;;110667;1250;41167;-62
2022/08/18 00:45:07;;;;;;;22.80;5.00;;;;;18.60;97109.80;;;;110911;1250;41137;-62
2022/08/18 00:47:36;;;;;;;14.00;6.40;;;;;18.50;97113.00;;;;111048;1248;41257;-62
2022/08/18 00:50:14;;;;;;;23.00;6.60;;;;;18.40;97111.00;;;;110846;1249;41158;-63
2022/08/18 00:53:07;;;;;;;90.50;7.20;;;;;18.30;97110.80;;;;110946;1248;41272;-63
2022/08/18 00:55:40;;;;;;;74.60;7.30;;;;;18.20;97116.20;;;;110926;1249;41148;-63
2022/08/18 00:58:28;;;;;;;42.90;5.60;;;;;18.10;97118.00;;;;110986;1250;42396;-63
2022/08/18 01:00:59;;;;;;;42.40;5.10;;;;;18.10;97123.40;;;;110655;1251;41143;-62
2022/08/18 01:03:32;;;;;;;28.80;4.80;;;;;18.10;97125.40;;;;110542;1252;41152;-64
2022/08/18 01:06:12;;;;;;;43.70;5.90;;;;;18.10;97121.40;;;;110831;1249;41151;-63
2022/08/18 01:08:43;;;;;;;15.30;4.90;;;;;18.10;97119.20;;;;110768;1249;41217;-64
2022/08/18 01:11:13;;;;;;;21.90;6.00;;;;;18.10;97124.00;;;;110826;1249;41383;-64
2022/08/18 01:13:44;;;;;;;13.00;5.00;;;;;18.10;97125.00;;;;110659;1250;41256;-64
2022/08/18 01:22:01;;;;;;;24.90;3.60;;;;;18.10;97120.60;;;;110951;1248;41245;-66
2022/08/18 01:27:24;;;;;;;9.10;3.10;;;;;18.10;97121.40;;;;110819;1252;41157;-64
2022/08/18 01:29:54;;;;;;;8.10;3.60;;;;;18.10;97119.20;;;;110661;1251;41156;-64
2022/08/18 01:32:25;;;;;;;8.60;3.20;;;;;18.10;97121.40;;;;110947;1249;41180;-64
2022/08/18 01:34:55;;;;;;;9.10;3.40;;;;;18.10;97115.80;;;;110916;1249;41251;-64
2022/08/18 01:37:25;;;;;;;11.50;3.50;;;;;18.10;97123.00;;;;111034;1248;41248;-65
2022/08/18 01:39:56;;;;;;;20.20;3.60;;;;;18.02;97121.80;;;;110852;1249;41248;-63
2022/08/18 01:42:46;;;;;;;;;;;;;18.00;97123.80;;;;110718;1249;42470;-63
2022/08/18 01:45:19;;;;;;;;;;;;;18.00;97125.40;;;;110688;1249;41413;-63
2022/08/18 01:47:50;;;;;;;15.90;3.30;;;;;18.00;97126.40;;;;111053;1249;41705;-63
2022/08/18 01:50:21;;;;;;;13.10;3.40;;;;;18.00;97126.60;;;;110857;1250;41260;-64
2022/08/18 01:52:52;;;;;;;8.70;4.00;;;;;18.00;97125.00;;;;110775;1249;41139;-63
2022/08/18 01:55:23;;;;;;;7.40;3.20;;;;;18.00;97131.40;;;;110806;1249;41156;-64
2022/08/18 01:57:54;;;;;;;8.10;3.40;;;;;18.00;97127.40;;;;110965;1250;41153;-64
2022/08/18 02:00:25;;;;;;;7.90;3.50;;;;;18.00;97129.80;;;;110896;1249;42032;-63
2022/08/18 02:02:55;;;;;;;8.20;4.00;;;;;18.00;97128.80;;;;111039;1249;41179;-63
2022/08/18 02:05:37;;;;;;;10.20;4.30;;;;;18.00;97116.20;;;;110874;1250;41156;-63
2022/08/18 02:08:11;;;;;;;11.00;4.90;;;;;18.00;97113.60;;;;110606;1249;41162;-63
2022/08/18 02:10:44;;;;;;;16.10;4.80;;;;;18.00;97114.80;;;;110641;1250;41405;-63
2022/08/18 02:13:14;;;;;;;14.70;4.20;;;;;18.00;97116.60;;;;110663;1250;41140;-63
2022/08/18 02:15:47;;;;;;;12.40;5.00;;;;;18.00;97119.60;;;;110639;1249;41923;-63
2022/08/18 02:18:20;;;;;;;11.90;4.10;;;;;17.90;97120.60;;;;110703;1249;41585;-63
2022/08/18 02:21:13;;;;;;;29.50;4.40;;;;;17.90;97123.60;;;;110696;1250;41257;-64
2022/08/18 02:23:49;;;;;;;33.70;5.20;;;;;17.90;97124.20;;;;110737;1249;41174;-64
2022/08/18 02:26:22;;;;;;;36.30;5.90;;;;;17.80;97122.00;;;;110660;1250;41187;-64
2022/08/18 02:28:51;;;;;;;16.40;4.50;;;;;17.80;97117.20;;;;111030;1250;42372;-63
2022/08/18 02:31:23;;;;;;;18.90;4.40;;;;;17.78;97116.20;;;;110791;1250;41145;-63
2022/08/18 02:33:53;;;;;;;19.60;4.80;;;;;17.70;97122.20;;;;110935;1249;41426;-63
2022/08/18 02:36:23;;;;;;;29.60;5.50;;;;;17.70;97122.40;;;;110830;1249;41118;-63
2022/08/18 02:38:53;;;;;;;;;;;;;17.68;97121.00;;;;110937;1249;41618;-64
2022/08/18 02:41:30;;;;;;;13.30;3.50;;;;;17.60;97118.60;;;;110883;1248;41254;-63
2022/08/18 02:44:00;;;;;;;7.50;3.40;;;;;17.66;97117.00;;;;110830;1250;41868;-63
2022/08/18 02:46:29;;;;;;;7.20;3.30;;;;;17.70;97113.80;;;;111023;1249;41144;-64
2022/08/18 02:49:00;;;;;;;7.30;3.30;;;;;17.70;97115.40;;;;111014;1249;41703;-63
2022/08/18 02:51:30;;;;;;;11.80;3.40;;;;;17.70;97106.00;;;;110881;1249;41260;-64
2022/08/18 02:54:01;;;;;;;11.30;3.20;;;;;17.76;97116.00;;;;110990;1249;41251;-64
2022/08/18 02:56:31;;;;;;;7.40;3.20;;;;;17.80;97115.20;;;;110817;1249;41165;-64
2022/08/18 02:59:12;;;;;;;9.00;3.50;;;;;17.80;97112.20;;;;110952;1250;41866;-65
2022/08/18 03:01:44;;;;;;;14.00;3.80;;;;;17.80;97116.40;;;;111002;1249;41430;-64
2022/08/18 03:04:24;;;;;;;12.40;3.90;;;;;17.86;97113.60;;;;110815;1250;41156;-64
2022/08/18 03:07:01;;;;;;;22.50;5.30;;;;;17.90;97115.80;;;;110818;1249;41462;-63
2022/08/18 03:09:33;;;;;;;21.00;5.30;;;;;17.90;97116.20;;;;110823;1250;42291;-65
2022/08/18 03:12:05;;;;;;;38.50;5.90;;;;;17.90;97119.20;;;;110838;1250;41258;-64
2022/08/18 03:14:38;;;;;;;18.00;5.50;;;;;17.90;97118.40;;;;110842;1249;41138;-64
2022/08/18 03:17:09;;;;;;;27.60;6.20;;;;;17.90;97125.40;;;;110729;1249;41781;-63
2022/08/18 03:19:38;;;;;;;29.10;5.50;;;;;17.90;97122.00;;;;110798;1250;41518;-63
2022/08/18 03:22:08;;;;;;;16.00;5.10;;;;;17.88;97125.40;;;;110957;1249;41180;-64
2022/08/18 03:24:56;;;;;;;18.30;4.10;;;;;17.80;97120.40;;;;110828;1250;41239;-63
2022/08/18 03:27:25;;;;;;;13.50;4.30;;;;;17.80;97121.00;;;;110826;1250;42024;-64
2022/08/18 03:29:56;;;;;;;15.60;4.00;;;;;17.86;97118.60;;;;110853;1249;41312;-62
2022/08/18 03:32:26;;;;;;;23.40;4.20;;;;;17.90;97119.40;;;;110872;1249;41266;-63
2022/08/18 03:34:58;;;;;;;17.00;4.90;;;;;17.90;97114.60;;;;110762;1249;41874;-62
2022/08/18 03:37:28;;;;;;;17.60;4.80;;;;;17.90;97116.80;;;;110890;1249;41728;-63
2022/08/18 03:39:57;;;;;;;18.30;5.30;;;;;17.90;97115.60;;;;111186;1249;41406;-63
2022/08/18 03:42:27;;;;;;;16.20;6.60;;;;;17.98;97115.60;;;;111052;1248;41645;-64
2022/08/18 03:44:56;;;;;;;33.40;7.70;;;;;18.00;97115.20;;;;110979;1248;41819;-64
2022/08/18 03:47:26;;;;;;;65.50;9.30;;;;;18.00;97115.60;;;;111052;1248;42017;-63
2022/08/18 03:49:55;;;;;;;28.80;5.20;;;;;18.00;97115.60;;;;110791;1249;41275;-63
2022/08/18 03:52:26;;;;;;;;;;;;;18.00;97112.80;;;;110942;1248;41225;-64
2022/08/18 03:54:56;;;;;;;20.10;5.20;;;;;18.00;97110.00;;;;110990;1249;41427;-63
2022/08/18 03:57:25;;;;;;;9.70;4.60;;;;;18.00;97116.80;;;;111208;1249;41367;-64
2022/08/18 03:59:55;;;;;;;9.80;4.30;;;;;18.00;97113.40;;;;111153;1249;41151;-63
2022/08/18 04:02:24;;;;;;;10.90;4.70;;;;;18.04;97110.00;;;;111052;1249;41161;-63
2022/08/18 04:04:54;;;;;;;15.10;5.90;;;;;18.10;97114.80;;;;110909;1249;41337;-63
2022/08/18 04:07:23;;;;;;;10.10;3.80;;;;;18.10;97121.20;;;;110958;1249;41157;-64
2022/08/18 04:09:52;;;;;;;21.40;6.70;;;;;18.20;97131.20;;;;110885;1249;41669;-63
2022/08/18 04:12:22;;;;;;;8.40;4.30;;;;;18.20;97130.40;;;;111118;1249;41518;-63
2022/08/18 04:14:52;;;;;;;9.80;4.30;;;;;18.20;97136.20;;;;111061;1249;42036;-63
2022/08/18 04:17:24;;;;;;;12.70;4.00;;;;;18.20;97139.20;;;;111095;1249;41249;-63
2022/08/18 04:19:54;;;;;;;13.50;4.40;;;;;18.30;97140.00;;;;111120;1249;41904;-63
2022/08/18 04:22:24;;;;;;;9.00;3.90;;;;;18.30;97140.60;;;;111307;1250;42389;-63
2022/08/18 04:24:53;;;;;;;9.10;4.10;;;;;18.40;97138.80;;;;110797;1250;42365;-64
2022/08/18 04:27:22;;;;;;;9.10;4.30;;;;;18.50;97144.60;;;;111107;1248;41370;-64
2022/08/18 04:29:51;;;;;;;12.80;4.60;;;;;18.60;97146.80;;;;111123;1249;41252;-63
2022/08/18 04:32:20;;;;;;;48.60;4.70;;;;;18.66;97146.60;;;;111158;1249;41279;-63
2022/08/18 04:34:50;;;;;;;11.00;4.40;;;;;18.80;97145.40;;;;110975;1250;41615;-64
2022/08/18 04:37:19;;;;;;;11.20;4.10;;;;;18.90;97137.20;;;;111068;1248;41969;-64
2022/08/18 04:39:49;;;;;;;23.90;6.00;;;;;19.00;97136.20;;;;111062;1248;42371;-64
2022/08/18 04:42:25;;;;;;;53.60;8.30;;;;;19.10;97143.20;;;;110930;1250;41169;-64
2022/08/18 04:44:58;;;;;;;19.30;8.10;;;;;19.20;97143.60;;;;111046;1249;41146;-64
2022/08/18 04:47:27;;;;;;;26.30;7.30;;;;;19.20;97140.60;;;;110991;1248;41707;-64
2022/08/18 04:50:00;;;;;;;44.00;6.70;;;;;19.20;97142.00;;;;110961;1248;41741;-64
2022/08/18 04:55:17;;;;;;;14.40;5.20;;;;;19.18;97143.40;;;;111069;1249;41518;-64
2022/08/18 04:57:46;;;;;;;14.70;5.70;;;;;19.20;97147.20;;;;110944;1250;41157;-63
2022/08/18 05:00:18;;;;;;;17.10;5.50;;;;;19.22;97149.80;;;;110867;1249;41264;-63
2022/08/18 05:02:48;;;;;;;36.90;6.70;;;;;19.30;97155.40;;;;111069;1249;41149;-65
2022/08/18 05:05:17;;;;;;;32.40;6.60;;;;;19.20;97149.40;;;;111115;1249;41264;-66
2022/08/18 05:07:47;;;;;;;35.20;6.70;;;;;19.20;97155.60;;;;111027;1248;41951;-66
2022/08/18 05:10:17;;;;;;;16.50;5.70;;;;;19.10;97158.40;;;;111029;1249;41146;-64
2022/08/18 05:12:47;;;;;;;8.80;4.10;;;;;19.12;97163.40;;;;111083;1247;41574;-64
2022/08/18 05:15:17;;;;;;;21.60;5.30;;;;;19.20;97161.80;;;;111071;1248;41143;-64
2022/08/18 05:17:46;;;;;;;16.50;5.00;;;;;19.30;97160.80;;;;111052;1249;41431;-63
2022/08/18 05:20:18;;;;;;;11.90;5.80;;;;;19.38;97162.60;;;;110891;1250;41144;-63
2022/08/18 05:22:47;;;;;;;16.60;6.90;;;;;19.40;97162.60;;;;111099;1250;41259;-64
2022/08/18 05:25:17;;;;;;;28.40;7.30;;;;;19.50;97160.40;;;;111273;1247;41402;-64
2022/08/18 05:27:46;;;;;;;10.60;6.00;;;;;19.50;97161.20;;;;110945;1249;41563;-65
2022/08/18 05:30:15;;;;;;;15.30;6.80;;;;;19.56;97164.80;;;;111059;1248;41719;-64
2022/08/18 05:32:45;;;;;;;13.30;6.90;;;;;19.60;97168.40;;;;111033;1248;41597;-64
2022/08/18 05:35:22;;;;;;;19.10;6.10;;;;;19.60;97171.40;;;;111061;1249;41151;-66
2022/08/18 05:38:00;;;;;;;17.10;4.90;;;;;19.50;97176.00;;;;111048;1249;41914;-64
2022/08/18 05:40:30;;;;;;;9.20;4.20;;;;;19.56;97172.60;;;;111024;1249;41145;-64
2022/08/18 05:42:59;;;;;;;17.60;5.70;;;;;19.60;97171.40;;;;110966;1249;41158;-64
2022/08/18 05:45:28;;;;;;;11.20;5.20;;;;;19.80;97173.60;;;;110751;1250;41124;-64
2022/08/18 05:48:00;;;;;;;10.20;5.60;;;;;19.94;97169.00;;;;110973;1249;41649;-64
2022/08/18 05:50:31;;;;;;;10.40;5.00;;;;;20.00;97170.40;;;;111083;1249;41155;-63
2022/08/18 05:56:45;;;;;;;11.50;6.10;;;;;20.10;97171.60;;;;111081;1250;41613;-62
2022/08/18 05:59:00;;;;;;;7.90;3.50;;;;;20.20;97166.00;;;;110630;1250;41139;-63
2022/08/18 06:01:37;;;;;;;9.60;4.60;;;;;20.28;97162.60;;;;110953;1249;41906;-63
2022/08/18 06:04:14;;;;;;;9.60;4.70;;;;;20.44;97159.20;;;;111074;1249;41162;-65
2022/08/18 06:06:44;;;;;;;10.90;6.10;;;;;20.74;97156.80;;;;111102;1249;41141;-64
2022/08/18 06:09:23;;;;;;;12.40;5.90;;;;;21.10;97160.80;;;;110988;1250;42043;-64
2022/08/18 06:11:56;;;;;;;9.00;4.50;;;;;21.40;97158.60;;;;110916;1251;42281;-62
2022/08/18 06:14:25;;;;;;;8.90;4.20;;;;;21.68;97157.40;;;;110947;1248;42560;-64
2022/08/18 06:17:14;;;;;;;9.30;4.50;;;;;21.80;97160.60;;;;110957;1248;41206;-64
2022/08/18 06:20:14;;;;;;;11.30;5.70;;;;;21.90;97164.20;;;;111041;1249;41999;-64
2022/08/18 06:22:55;;;;;;;9.70;4.80;;;;;21.70;97168.60;;;;111128;1249;41152;-64
2022/08/18 06:26:12;;;;;;;10.60;4.80;;;;;21.52;97167.80;;;;110972;1247;41133;-64
2022/08/18 06:29:01;;;;;;;9.00;4.60;;;;;21.50;97166.80;;;;110833;1249;41617;-64
2022/08/18 06:31:39;;;;;;;9.80;4.70;;;;;21.50;97171.80;;;;110738;1250;41249;-64
2022/08/18 06:34:28;;;;;;;8.70;4.00;;;;;21.60;97173.00;;;;111081;1249;41143;-63
2022/08/18 06:37:03;;;;;;;8.40;3.90;;;;;21.70;97175.00;;;;111086;1249;42394;-64
2022/08/18 06:39:45;;;;;;;10.40;4.00;;;;;21.94;97171.60;;;;110803;1250;41157;-64
2022/08/18 06:42:17;;;;;;;7.70;3.50;;;;;22.60;97160.00;;;;110879;1248;41884;-64
2022/08/18 06:44:47;;;;;;;8.10;3.70;;;;;23.80;97159.40;;;;110892;1247;41137;-65
2022/08/18 06:47:53;;;;;;;7.70;3.80;;;;;24.84;97155.80;;;;110947;1250;41149;-64
2022/08/18 06:50:27;;;;;;;7.50;3.50;;;;;26.46;97153.40;;;;111121;1249;41175;-64
2022/08/18 06:53:00;;;;;;;9.20;4.50;;;;;27.20;97158.20;;;;111022;1249;41698;-64
2022/08/18 06:55:41;;;;;;;7.50;3.60;;;;;27.22;97161.00;;;;111070;1250;41231;-65
2022/08/18 06:58:18;;;;;;;9.40;4.10;;;;;26.94;97156.40;;;;111039;1249;42095;-65
2022/08/18 07:00:50;;;;;;;8.90;4.50;;;;;26.70;97157.40;;;;111014;1247;41151;-64
2022/08/18 07:03:45;;;;;;;9.40;4.50;;;;;26.70;97158.20;;;;110964;1250;42388;-65
2022/08/18 07:06:22;;;;;;;;;;;;;26.46;97161.60;;;;110768;1250;41150;-65
2022/08/18 07:08:53;;;;;;;8.70;4.20;;;;;26.38;97157.00;;;;110889;1249;42032;-64
2022/08/18 07:11:26;;;;;;;8.80;4.30;;;;;26.60;97163.00;;;;110693;1250;42522;-65
2022/08/18 07:13:57;;;;;;;8.00;3.60;;;;;26.64;97155.20;;;;110982;1250;40763;-65
2022/08/18 07:16:43;;;;;;;8.60;3.70;;;;;27.16;97152.80;;;;110818;1250;41417;-65
2022/08/18 07:19:30;;;;;;;9.30;4.20;;;;;27.24;97154.20;;;;111001;1247;41261;-64
2022/08/18 07:22:12;;;;;;;8.10;3.70;;;;;27.70;97151.80;;;;110909;1249;41618;-64
2022/08/18 07:24:44;;;;;;;9.80;4.10;;;;;28.30;97160.00;;;;110973;1250;41258;-64
2022/08/18 07:27:18;;;;;;;11.30;5.70;;;;;28.40;97161.60;;;;111126;1250;41185;-65
2022/08/18 07:30:10;;;;;;;14.80;7.00;;;;;27.80;97157.80;;;;111061;1249;42207;-63
2022/08/18 07:32:46;;;;;;;10.70;5.00;;;;;27.30;97158.00;;;;110890;1250;41015;-63
2022/08/18 07:35:18;;;;;;;16.30;5.70;;;;;26.78;97162.40;;;;110997;1249;41137;-64
2022/08/18 07:38:04;;;;;;;11.90;6.40;;;;;26.88;97149.40;;;;111067;1250;41146;-64
2022/08/18 07:41:02;;;;;;;12.70;6.70;;;;;27.22;97152.00;;;;110946;1250;41516;-64
2022/08/18 07:43:52;;;;;;;10.50;5.50;;;;;27.00;97155.80;;;;110969;1250;41263;-65
2022/08/18 07:46:28;;;;;;;14.50;6.30;;;;;26.88;97148.80;;;;110936;1250;41196;-64
2022/08/18 07:49:00;;;;;;;14.20;6.50;;;;;27.26;97153.00;;;;111000;1250;41150;-64
2022/08/18 07:51:35;;;;;;;10.60;5.70;;;;;27.02;97150.60;;;;110641;1251;41143;-64
2022/08/18 07:54:08;;;;;;;13.70;7.00;;;;;27.50;97148.00;;;;110867;1251;41485;-64
2022/08/18 07:57:32;;;;;;;13.50;7.40;;;;;27.60;97144.80;;;;111234;1249;41751;-64
2022/08/18 08:00:38;;;;;;;11.00;5.90;;;;;27.20;97149.00;;;;110977;1249;41203;-66
2022/08/18 08:03:52;;;;;;;14.80;6.20;;;;;27.54;97160.20;;;;111019;1250;41624;-65
2022/08/18 08:06:29;;;;;;;11.40;5.10;;;;;27.96;97159.20;;;;110967;1250;41133;-65
2022/08/18 08:09:42;;;;;;;13.80;7.40;;;;;28.78;97159.20;;;;110903;1250;41188;-65
2022/08/18 08:12:21;;;;;;;12.10;5.90;;;;;29.72;97150.80;;;;110829;1250;41143;-65
2022/08/18 08:15:05;;;;;;;16.60;7.30;;;;;29.92;97145.00;;;;110848;1250;41480;-64
2022/08/18 08:18:03;;;;;;;10.90;5.50;;;;;30.00;97146.00;;;;110951;1249;41194;-65
2022/08/18 08:20:38;;;;;;;12.30;6.70;;;;;30.88;97142.60;;;;110956;1250;41746;-65
2022/08/18 08:23:26;;;;;;;13.80;5.70;;;;;31.82;97138.20;;;;111076;1248;41131;-63
2022/08/18 08:26:26;;;;;;;12.70;6.20;;;;;32.40;97140.60;;;;110834;1249;41508;-65
2022/08/18 08:29:22;;;;;;;15.30;7.50;;;;;32.86;97138.40;;;;110897;1250;40818;-67
2022/08/18 08:32:02;;;;;;;18.10;6.80;;;;;32.44;97136.60;;;;111064;1250;41119;-64
2022/08/18 08:34:49;;;;;;;11.10;5.20;;;;;32.56;97142.80;;;;111062;1249;41436;-66
2022/08/18 08:37:38;;;;;;;12.70;5.70;;;;;33.26;97138.80;;;;110755;1251;41720;-64
2022/08/18 08:40:14;;;;;;;10.00;4.20;;;;;33.18;97136.80;;;;110999;1249;41161;-65
2022/08/18 08:42:49;;;;;;;13.90;4.90;;;;;34.14;97135.20;;;;111024;1250;41152;-64
2022/08/18 08:45:34;;;;;;;12.60;5.20;;;;;34.12;97135.60;;;;111000;1250;41127;-64
2022/08/18 08:48:16;;;;;;;9.10;4.30;;;;;34.38;97138.80;;;;111022;1250;41386;-64
2022/08/18 08:50:52;;;;;;;11.90;4.80;;;;;34.90;97142.80;;;;110808;1249;41277;-64
2022/08/18 08:53:34;;;;;;;11.50;4.30;;;;;35.20;97133.40;;;;110970;1250;42847;-64
2022/08/18 08:56:08;;;;;;;9.90;3.80;;;;;35.90;97140.80;;;;111167;1250;42431;-64
2022/08/18 08:58:44;;;;;;;11.90;3.60;;;;;36.22;97136.20;;;;110997;1248;41268;-64
2022/08/18 09:01:28;;;;;;;9.10;3.60;;;;;36.80;97138.00;;;;110883;1250;41423;-64
2022/08/18 09:04:39;;;;;;;10.40;3.60;;;;;37.60;97133.40;;;;111014;1250;41151;-64
2022/08/18 09:07:47;;;;;;;7.50;2.80;;;;;38.42;97134.00;;;;110855;1248;41156;-65
2022/08/18 09:10:34;;;;;;;7.20;2.70;;;;;38.80;97130.40;;;;110716;1250;41148;-65
2022/08/18 09:13:40;;;;;;;7.00;2.80;;;;;39.40;97131.80;;;;110917;1250;42013;-65
2022/08/18 09:16:44;;;;;;;7.00;2.90;;;;;39.40;97130.80;;;;111015;1250;41150;-65
2022/08/18 09:19:13;;;;;;;6.50;2.50;;;;;39.70;97135.20;;;;110795;1250;41622;-65
2022/08/18 09:21:53;;;;;;;6.50;2.90;;;;;40.00;97133.60;;;;110987;1249;41131;-65
2022/08/18 09:24:27;;;;;;;7.30;2.80;;;;;40.10;97130.80;;;;111064;1249;41141;-65
2022/08/18 09:27:02;;;;;;;8.20;2.70;;;;;40.10;97133.80;;;;111086;1250;41281;-64
2022/08/18 09:29:37;;;;;;;6.90;2.80;;;;;40.20;97134.60;;;;110877;1250;41722;-65
2022/08/18 09:32:17;;;;;;;8.70;2.70;;;;;40.18;97135.80;;;;111051;1250;41151;-65
2022/08/18 09:34:58;;;;;;;7.10;2.50;;;;;40.00;97141.60;;;;111121;1248;41160;-64
2022/08/18 09:37:38;;;;;;;9.40;3.00;;;;;40.00;97135.40;;;;110827;1250;42631;-65
2022/08/18 09:43:24;;;;;;;9.40;4.30;;;;;39.40;97138.00;;;;110912;1251;41645;-64
2022/08/18 09:46:03;;;;;;;12.90;6.00;;;;;39.40;97132.80;;;;111080;1250;41627;-64
2022/08/18 09:48:37;;;;;;;7.60;3.40;;;;;39.50;97133.80;;;;110797;1250;41713;-65
2022/08/18 09:51:35;;;;;;;14.00;6.80;;;;;39.40;97129.40;;;;110940;1250;41852;-64
2022/08/18 09:54:12;;;;;;;9.60;4.50;;;;;39.20;97131.80;;;;111210;1250;41480;-64
2022/08/18 09:56:48;;;;;;;7.60;3.10;;;;;39.04;97129.60;;;;111011;1250;41263;-64
2022/08/18 09:59:34;;;;;;;6.60;2.60;;;;;38.74;97132.00;;;;110996;1250;41286;-64
2022/08/18 10:02:05;;;;;;;6.00;2.50;;;;;38.74;97133.80;;;;110990;1250;41606;-65
2022/08/18 10:04:52;;;;;;;5.80;2.70;;;;;39.20;97128.60;;;;110992;1250;41712;-65
2022/08/18 10:07:30;;;;;;;6.10;2.60;;;;;39.70;97130.60;;;;110994;1249;42004;-65
2022/08/18 10:10:22;;;;;;;7.60;2.70;;;;;39.80;97127.80;;;;111115;1248;41156;-65
2022/08/18 10:13:35;;;;;;;6.60;2.80;;;;;39.90;97119.00;;;;111031;1249;41253;-64
2022/08/18 10:16:24;;;;;;;6.20;2.30;;;;;40.00;97124.20;;;;111063;1250;41141;-64
2022/08/18 10:19:19;;;;;;;5.60;2.30;;;;;40.30;97125.40;;;;111114;1250;41590;-63
2022/08/18 10:21:58;;;;;;;8.70;2.40;;;;;40.84;97114.80;;;;110765;1250;41735;-63
2022/08/18 10:24:40;;;;;;;5.40;2.20;;;;;41.20;97116.60;;;;110938;1247;42441;-65
2022/08/18 10:27:30;;;;;;;4.50;2.20;;;;;41.60;97115.80;;;;111068;1249;41968;-64
2022/08/18 10:30:00;;;;;;;8.30;2.80;;;;;42.10;97111.40;;;;111032;1250;41153;-65
2022/08/18 10:32:38;;;;;;;5.70;2.30;;;;;42.30;97114.00;;;;110812;1251;41169;-65
2022/08/18 10:35:36;;;;;;;4.90;2.10;;;;;42.28;97105.80;;;;111036;1250;41131;-65
2022/08/18 10:38:21;;;;;;;9.80;2.90;;;;;42.06;97107.60;;;;110789;1250;41155;-64
2022/08/18 10:41:03;;;;;;;5.00;2.10;;;;;41.74;97113.60;;;;111026;1249;41248;-65
2022/08/18 10:43:43;;;;;;;8.00;2.80;;;;;41.44;97117.40;;;;110686;1250;41254;-63
2022/08/18 10:46:27;;;;;;;6.60;2.50;;;;;41.18;97118.40;;;;110972;1250;41633;-65
2022/08/18 10:49:24;;;;;;;6.40;2.50;;;;;41.10;97118.00;;;;110836;1250;41623;-65
2022/08/18 10:52:00;;;;;;;6.80;2.60;;;;;40.80;97116.00;;;;110931;1250;41138;-64
2022/08/18 10:55:03;;;;;;;7.20;2.30;;;;;40.76;97116.80;;;;110979;1250;41128;-65
2022/08/18 10:57:55;;;;;;;6.00;2.20;;;;;40.80;97123.00;;;;111034;1250;41235;-64
2022/08/18 11:00:44;;;;;;;4.90;2.10;;;;;40.90;97122.60;;;;110923;1249;42367;-64
2022/08/18 11:03:26;;;;;;;18.70;9.80;;;;;40.50;97130.20;;;;110648;1250;41183;-64
2022/08/18 11:06:26;;;;;;;14.40;7.60;;;;;40.40;97132.80;;;;110779;1249;41261;-64
2022/08/18 11:08:59;;;;;;;8.50;3.70;;;;;40.30;97136.40;;;;110762;1251;41262;-64
2022/08/18 11:11:36;;;;;;;9.10;3.60;;;;;40.40;97129.20;;;;110958;1251;41190;-64
2022/08/18 11:14:41;;;;;;;7.90;2.70;;;;;40.60;97127.20;;;;110807;1250;41192;-65
2022/08/18 11:17:23;;;;;;;5.20;2.10;;;;;40.48;97125.00;;;;110813;1250;41188;-64
2022/08/18 11:19:53;;;;;;;6.80;2.50;;;;;40.70;97119.80;;;;110664;1250;41149;-64
2022/08/18 11:22:21;;;;;;;5.10;2.20;;;;;40.80;97119.20;;;;110714;1251;41499;-65
2022/08/18 11:25:23;;;;;;;5.30;2.10;;;;;41.32;97119.60;;;;110713;1251;41353;-65
2022/08/18 11:27:52;;;;;;;5.20;2.20;;;;;42.16;97120.00;;;;110799;1250;41139;-65
2022/08/18 11:30:24;;;;;;;5.60;2.20;;;;;43.04;97116.20;;;;110852;1250;41149;-64
2022/08/18 11:32:59;;;;;;;6.00;2.50;;;;;43.90;97108.80;;;;110820;1250;41261;-66
2022/08/18 11:35:33;;;;;;;7.60;2.10;;;;;43.96;97107.80;;;;110768;1251;41941;-66
2022/08/18 11:38:04;;;;;;;6.50;2.30;;;;;44.10;97109.20;;;;110951;1251;41910;-65
2022/08/18 11:41:04;;;;;;;5.30;2.20;;;;;44.10;97113.60;;;;110840;1251;41913;-66
2022/08/18 11:43:38;;;;;;;6.50;2.50;;;;;44.30;97108.80;;;;110768;1250;41265;-65
2022/08/18 11:46:27;;;;;;;7.00;2.40;;;;;44.20;97101.20;;;;110824;1250;41153;-65
2022/08/18 11:49:00;;;;;;;6.30;2.30;;;;;43.88;97097.20;;;;110745;1249;41165;-65
2022/08/18 11:51:31;;;;;;;5.20;2.40;;;;;44.16;97102.40;;;;110995;1250;41144;-65
2022/08/18 11:54:03;;;;;;;6.70;2.40;;;;;44.72;97100.20;;;;111074;1250;41295;-65
2022/08/18 11:56:34;;;;;;;5.60;2.20;;;;;45.32;97093.60;;;;110965;1250;41607;-65
2022/08/18 11:59:28;;;;;;;6.20;2.50;;;;;45.10;97098.80;;;;111014;1251;41263;-65
2022/08/18 12:02:18;;;;;;;7.60;2.30;;;;;45.08;97099.20;;;;110874;1250;42390;-65
2022/08/18 12:04:53;;;;;;;6.40;2.20;;;;;44.44;97101.20;;;;110875;1250;42812;-65
2022/08/18 12:07:35;;;;;;;4.40;2.00;;;;;45.10;97094.00;;;;110985;1250;41284;-64
2022/08/18 12:10:14;;;;;;;5.80;2.20;;;;;45.30;97098.60;;;;110800;1251;42325;-64
2022/08/18 12:12:49;;;;;;;5.80;2.30;;;;;45.50;97096.80;;;;111010;1250;41153;-66
2022/08/18 12:15:19;;;;;;;5.80;2.20;;;;;45.40;97090.80;;;;110974;1247;41218;-65
2022/08/18 12:17:51;;;;;;;4.20;2.00;;;;;44.96;97090.00;;;;111058;1249;41314;-65
2022/08/18 12:20:21;;;;;;;5.20;2.00;;;;;44.30;97095.60;;;;110933;1250;42644;-64
2022/08/18 12:22:52;;;;;;;5.70;2.30;;;;;44.26;97097.00;;;;110954;1250;41159;-65
2022/08/18 12:25:22;;;;;;;5.80;2.30;;;;;44.50;97096.40;;;;110983;1250;41129;-65
2022/08/18 12:27:53;;;;;;;5.70;2.10;;;;;44.76;97089.20;;;;111064;1248;41261;-65
2022/08/18 12:30:22;;;;;;;4.60;2.00;;;;;44.40;97094.20;;;;111102;1250;42447;-65
2022/08/18 12:32:50;;;;;;;4.40;1.90;;;;;44.40;97095.40;;;;111013;1250;41139;-65
2022/08/18 12:35:23;;;;;;;4.50;1.90;;;;;44.58;97093.40;;;;111123;1250;40743;-65
2022/08/18 12:37:52;;;;;;;4.90;2.00;;;;;44.38;97089.00;;;;111144;1247;41190;-65
2022/08/18 12:40:27;;;;;;;6.10;2.20;;;;;44.30;97086.80;;;;110874;1248;42411;-65
2022/08/18 12:42:55;;;;;;;5.20;2.10;;;;;44.30;97076.40;;;;111078;1248;41261;-65
2022/08/18 12:45:25;;;;;;;4.70;1.90;;;;;44.10;97079.60;;;;111175;1248;41935;-64
2022/08/18 12:47:54;;;;;;;6.60;1.80;;;;;43.80;97080.00;;;;110708;1250;41137;-65
2022/08/18 12:50:22;;;;;;;4.90;2.00;;;;;43.34;97079.80;;;;110880;1250;41618;-65
2022/08/18 12:52:59;;;;;;;4.90;1.90;;;;;43.00;97078.60;;;;110984;1249;42180;-65
2022/08/18 12:55:33;;;;;;;5.90;2.10;;;;;42.70;97078.60;;;;111032;1248;41195;-65
2022/08/18 12:58:06;;;;;;;4.50;1.90;;;;;42.90;97073.00;;;;110962;1250;41140;-65
2022/08/18 13:00:35;;;;;;;3.70;1.80;;;;;42.54;97075.20;;;;110936;1249;41320;-65
2022/08/18 13:03:04;;;;;;;4.30;2.00;;;;;41.98;97070.60;;;;110964;1250;41149;-65
2022/08/18 13:05:33;;;;;;;4.10;1.80;;;;;41.44;97071.40;;;;110961;1250;41258;-64
2022/08/18 13:08:03;;;;;;;4.50;1.90;;;;;40.30;97076.80;;;;111008;1248;41748;-65
2022/08/18 13:10:33;;;;;;;5.80;1.90;;;;;39.66;97075.80;;;;111010;1249;41247;-65
2022/08/18 13:13:15;;;;;;;5.10;2.10;;;;;39.04;97071.80;;;;110958;1250;41628;-65